sensor_id;sensor_type;location;lat;lon;timestamp;P1;durP1;ratioP1;P2;durP2;ratioP2
55190;SDS011;41070;50.360;18.742;2022-08-05T00:01:12;8.50;;;6.90;;
55190;SDS011;41070;50.360;18.742;2022-08-05T00:03:43;8.10;;;7.20;;
55190;SDS011;41070;50.360;18.742;2022-08-05T00:06:11;9.10;;;7.20;;
55190;SDS011;41070;50.360;18.742;2022-08-05T00:08:39;8.70;;;7.40;;
55190;SDS011;41070;50.360;18.742;2022-08-05T00:11:08;10.60;;;6.80;;
55190;SDS011;41070;50.360;18.742;2022-08-05T00:13:39;8.90;;;7.40;;
55190;SDS011;41070;50.360;18.742;2022-08-05T00:16:08;11.20;;;6.80;;
55190;SDS011;41070;50.360;18.742;2022-08-05T00:18:37;8.20;;;6.60;;
55190;SDS011;41070;50.360;18.742;2022-08-05T00:21:05;7.40;;;6.40;;
55190;SDS011;41070;50.360;18.742;2022-08-05T00:23:33;9.40;;;6.80;;
55190;SDS011;41070;50.360;18.742;2022-08-05T00:26:01;8.40;;;6.70;;
55190;SDS011;41070;50.360;18.742;2022-08-05T00:28:28;8.70;;;7.30;;
55190;SDS011;41070;50.360;18.742;2022-08-05T00:30:56;11.10;;;7.70;;
55190;SDS011;41070;50.360;18.742;2022-08-05T00:33:23;7.40;;;6.60;;
55190;SDS011;41070;50.360;18.742;2022-08-05T00:35:51;8.10;;;6.60;;
55190;SDS011;41070;50.360;18.742;2022-08-05T00:38:18;7.90;;;6.20;;
55190;SDS011;41070;50.360;18.742;2022-08-05T00:40:48;8.00;;;6.80;;
55190;SDS011;41070;50.360;18.742;2022-08-05T00:43:20;7.80;;;6.30;;
55190;SDS011;41070;50.360;18.742;2022-08-05T00:45:48;8.30;;;6.20;;
55190;SDS011;41070;50.360;18.742;2022-08-05T00:48:17;7.20;;;6.10;;
55190;SDS011;41070;50.360;18.742;2022-08-05T00:50:48;6.90;;;6.20;;
55190;SDS011;41070;50.360;18.742;2022-08-05T00:53:20;7.30;;;6.40;;
55190;SDS011;41070;50.360;18.742;2022-08-05T00:55:49;7.60;;;6.60;;
55190;SDS011;41070;50.360;18.742;2022-08-05T00:58:17;7.20;;;6.20;;
55190;SDS011;41070;50.360;18.742;2022-08-05T01:00:45;8.80;;;6.10;;
55190;SDS011;41070;50.360;18.742;2022-08-05T01:03:13;7.40;;;6.40;;
55190;SDS011;41070;50.360;18.742;2022-08-05T01:05:40;7.20;;;6.40;;
55190;SDS011;41070;50.360;18.742;2022-08-05T01:08:08;8.80;;;6.10;;
55190;SDS011;41070;50.360;18.742;2022-08-05T01:10:37;8.70;;;6.50;;
55190;SDS011;41070;50.360;18.742;2022-08-05T01:13:12;9.40;;;5.80;;
55190;SDS011;41070;50.360;18.742;2022-08-05T01:15:49;11.80;;;7.00;;
55190;SDS011;41070;50.360;18.742;2022-08-05T01:18:24;8.20;;;6.00;;
55190;SDS011;41070;50.360;18.742;2022-08-05T01:24:05;7.20;;;5.60;;
55190;SDS011;41070;50.360;18.742;2022-08-05T01:29:30;9.20;;;6.60;;
55190;SDS011;41070;50.360;18.742;2022-08-05T01:32:03;6.90;;;5.90;;
55190;SDS011;41070;50.360;18.742;2022-08-05T01:34:36;8.30;;;6.40;;
55190;SDS011;41070;50.360;18.742;2022-08-05T01:37:11;9.60;;;5.90;;
55190;SDS011;41070;50.360;18.742;2022-08-05T01:39:45;8.10;;;6.30;;
55190;SDS011;41070;50.360;18.742;2022-08-05T01:42:16;10.60;;;6.10;;
55190;SDS011;41070;50.360;18.742;2022-08-05T01:44:46;8.90;;;6.50;;
55190;SDS011;41070;50.360;18.742;2022-08-05T01:47:16;10.10;;;6.00;;
55190;SDS011;41070;50.360;18.742;2022-08-05T01:49:46;8.50;;;5.90;;
55190;SDS011;41070;50.360;18.742;2022-08-05T01:52:16;12.00;;;6.50;;
55190;SDS011;41070;50.360;18.742;2022-08-05T01:54:51;7.70;;;5.80;;
55190;SDS011;41070;50.360;18.742;2022-08-05T01:57:26;7.00;;;6.10;;
55190;SDS011;41070;50.360;18.742;2022-08-05T01:59:57;8.80;;;6.00;;
55190;SDS011;41070;50.360;18.742;2022-08-05T02:02:27;7.90;;;6.30;;
55190;SDS011;41070;50.360;18.742;2022-08-05T02:04:57;9.50;;;5.90;;
55190;SDS011;41070;50.360;18.742;2022-08-05T02:07:27;9.00;;;6.30;;
55190;SDS011;41070;50.360;18.742;2022-08-05T02:09:56;9.00;;;6.60;;
55190;SDS011;41070;50.360;18.742;2022-08-05T02:12:32;8.70;;;6.90;;
55190;SDS011;41070;50.360;18.742;2022-08-05T02:15:23;9.10;;;7.00;;
55190;SDS011;41070;50.360;18.742;2022-08-05T02:17:57;10.80;;;7.20;;
55190;SDS011;41070;50.360;18.742;2022-08-05T02:20:45;8.50;;;6.40;;
55190;SDS011;41070;50.360;18.742;2022-08-05T02:23:16;9.80;;;6.50;;
55190;SDS011;41070;50.360;18.742;2022-08-05T02:25:48;7.50;;;6.50;;
55190;SDS011;41070;50.360;18.742;2022-08-05T02:28:22;9.30;;;6.70;;
55190;SDS011;41070;50.360;18.742;2022-08-05T02:30:54;9.20;;;6.50;;
55190;SDS011;41070;50.360;18.742;2022-08-05T02:33:24;9.30;;;6.50;;
55190;SDS011;41070;50.360;18.742;2022-08-05T02:35:54;8.70;;;6.90;;
55190;SDS011;41070;50.360;18.742;2022-08-05T02:38:24;8.50;;;6.40;;
55190;SDS011;41070;50.360;18.742;2022-08-05T02:40:55;9.90;;;6.90;;
55190;SDS011;41070;50.360;18.742;2022-08-05T02:43:25;9.90;;;6.70;;
55190;SDS011;41070;50.360;18.742;2022-08-05T02:45:54;9.10;;;6.90;;
55190;SDS011;41070;50.360;18.742;2022-08-05T02:48:22;8.90;;;6.30;;
55190;SDS011;41070;50.360;18.742;2022-08-05T02:50:52;9.40;;;6.10;;
55190;SDS011;41070;50.360;18.742;2022-08-05T02:53:20;8.80;;;6.40;;
55190;SDS011;41070;50.360;18.742;2022-08-05T02:55:49;7.30;;;6.20;;
55190;SDS011;41070;50.360;18.742;2022-08-05T02:58:21;11.00;;;6.40;;
55190;SDS011;41070;50.360;18.742;2022-08-05T03:00:52;8.20;;;6.30;;
55190;SDS011;41070;50.360;18.742;2022-08-05T03:03:21;9.50;;;6.50;;
55190;SDS011;41070;50.360;18.742;2022-08-05T03:05:49;8.60;;;6.90;;
55190;SDS011;41070;50.360;18.742;2022-08-05T03:08:18;9.70;;;7.00;;
55190;SDS011;41070;50.360;18.742;2022-08-05T03:10:45;10.80;;;7.20;;
55190;SDS011;41070;50.360;18.742;2022-08-05T03:13:13;9.00;;;7.00;;
55190;SDS011;41070;50.360;18.742;2022-08-05T03:15:43;8.90;;;6.40;;
55190;SDS011;41070;50.360;18.742;2022-08-05T03:18:12;11.80;;;7.00;;
55190;SDS011;41070;50.360;18.742;2022-08-05T03:20:42;11.30;;;7.60;;
55190;SDS011;41070;50.360;18.742;2022-08-05T03:23:09;8.90;;;6.60;;
55190;SDS011;41070;50.360;18.742;2022-08-05T03:25:38;12.30;;;7.00;;
55190;SDS011;41070;50.360;18.742;2022-08-05T03:28:07;13.30;;;6.70;;
55190;SDS011;41070;50.360;18.742;2022-08-05T03:30:36;10.00;;;6.90;;
55190;SDS011;41070;50.360;18.742;2022-08-05T03:33:05;12.40;;;7.00;;
55190;SDS011;41070;50.360;18.742;2022-08-05T03:35:33;13.10;;;6.90;;
55190;SDS011;41070;50.360;18.742;2022-08-05T03:38:01;13.70;;;6.90;;
55190;SDS011;41070;50.360;18.742;2022-08-05T03:40:29;15.40;;;7.20;;
55190;SDS011;41070;50.360;18.742;2022-08-05T03:42:56;16.70;;;6.90;;
55190;SDS011;41070;50.360;18.742;2022-08-05T03:45:24;11.60;;;7.00;;
55190;SDS011;41070;50.360;18.742;2022-08-05T03:47:51;15.30;;;7.50;;
55190;SDS011;41070;50.360;18.742;2022-08-05T03:50:19;14.10;;;6.80;;
55190;SDS011;41070;50.360;18.742;2022-08-05T03:55:34;11.30;;;6.50;;
55190;SDS011;41070;50.360;18.742;2022-08-05T03:58:07;14.20;;;7.30;;
55190;SDS011;41070;50.360;18.742;2022-08-05T04:00:37;10.90;;;7.10;;
55190;SDS011;41070;50.360;18.742;2022-08-05T04:03:07;13.80;;;6.90;;
55190;SDS011;41070;50.360;18.742;2022-08-05T04:05:37;12.60;;;6.70;;
55190;SDS011;41070;50.360;18.742;2022-08-05T04:08:08;12.40;;;6.20;;
55190;SDS011;41070;50.360;18.742;2022-08-05T04:10:37;16.90;;;7.50;;
55190;SDS011;41070;50.360;18.742;2022-08-05T04:13:05;13.20;;;7.30;;
55190;SDS011;41070;50.360;18.742;2022-08-05T04:15:33;12.70;;;6.70;;
55190;SDS011;41070;50.360;18.742;2022-08-05T04:18:01;10.70;;;6.90;;
55190;SDS011;41070;50.360;18.742;2022-08-05T04:20:30;12.20;;;7.00;;
55190;SDS011;41070;50.360;18.742;2022-08-05T04:22:58;12.10;;;7.20;;
55190;SDS011;41070;50.360;18.742;2022-08-05T04:25:25;11.40;;;7.20;;
55190;SDS011;41070;50.360;18.742;2022-08-05T04:27:53;13.60;;;7.00;;
55190;SDS011;41070;50.360;18.742;2022-08-05T04:30:21;15.30;;;7.60;;
55190;SDS011;41070;50.360;18.742;2022-08-05T04:32:48;11.30;;;7.10;;
55190;SDS011;41070;50.360;18.742;2022-08-05T04:35:16;12.90;;;7.70;;
55190;SDS011;41070;50.360;18.742;2022-08-05T04:37:43;10.70;;;7.20;;
55190;SDS011;41070;50.360;18.742;2022-08-05T04:40:11;13.30;;;7.30;;
55190;SDS011;41070;50.360;18.742;2022-08-05T04:42:38;14.80;;;7.00;;
55190;SDS011;41070;50.360;18.742;2022-08-05T04:45:06;15.00;;;7.40;;
55190;SDS011;41070;50.360;18.742;2022-08-05T04:47:34;15.60;;;6.60;;
55190;SDS011;41070;50.360;18.742;2022-08-05T04:50:02;14.10;;;7.10;;
55190;SDS011;41070;50.360;18.742;2022-08-05T04:52:29;12.30;;;7.20;;
55190;SDS011;41070;50.360;18.742;2022-08-05T04:54:57;13.70;;;7.50;;
55190;SDS011;41070;50.360;18.742;2022-08-05T04:57:24;12.70;;;7.20;;
55190;SDS011;41070;50.360;18.742;2022-08-05T04:59:52;10.30;;;6.70;;
55190;SDS011;41070;50.360;18.742;2022-08-05T05:02:20;11.60;;;6.50;;
55190;SDS011;41070;50.360;18.742;2022-08-05T05:04:47;13.50;;;6.80;;
55190;SDS011;41070;50.360;18.742;2022-08-05T05:07:15;10.90;;;6.60;;
55190;SDS011;41070;50.360;18.742;2022-08-05T05:09:43;10.60;;;6.30;;
55190;SDS011;41070;50.360;18.742;2022-08-05T05:12:11;13.40;;;5.90;;
55190;SDS011;41070;50.360;18.742;2022-08-05T05:14:39;11.40;;;6.40;;
55190;SDS011;41070;50.360;18.742;2022-08-05T05:17:06;9.70;;;6.10;;
55190;SDS011;41070;50.360;18.742;2022-08-05T05:19:34;7.60;;;5.60;;
55190;SDS011;41070;50.360;18.742;2022-08-05T05:22:01;9.80;;;5.70;;
55190;SDS011;41070;50.360;18.742;2022-08-05T05:24:29;9.70;;;5.80;;
55190;SDS011;41070;50.360;18.742;2022-08-05T05:26:57;11.90;;;6.20;;
55190;SDS011;41070;50.360;18.742;2022-08-05T05:29:24;9.00;;;6.20;;
55190;SDS011;41070;50.360;18.742;2022-08-05T05:31:52;8.90;;;6.00;;
55190;SDS011;41070;50.360;18.742;2022-08-05T05:34:21;9.60;;;6.50;;
55190;SDS011;41070;50.360;18.742;2022-08-05T05:36:49;8.80;;;5.50;;
55190;SDS011;41070;50.360;18.742;2022-08-05T05:39:16;7.60;;;5.60;;
55190;SDS011;41070;50.360;18.742;2022-08-05T05:41:44;6.40;;;5.70;;
55190;SDS011;41070;50.360;18.742;2022-08-05T05:44:12;6.60;;;5.90;;
55190;SDS011;41070;50.360;18.742;2022-08-05T05:46:39;5.90;;;5.30;;
55190;SDS011;41070;50.360;18.742;2022-08-05T05:49:07;8.60;;;5.40;;
55190;SDS011;41070;50.360;18.742;2022-08-05T05:51:34;7.60;;;5.70;;
55190;SDS011;41070;50.360;18.742;2022-08-05T05:54:02;6.70;;;4.90;;
55190;SDS011;41070;50.360;18.742;2022-08-05T05:56:30;6.90;;;5.50;;
55190;SDS011;41070;50.360;18.742;2022-08-05T05:58:58;6.80;;;5.30;;
55190;SDS011;41070;50.360;18.742;2022-08-05T06:01:25;7.90;;;5.20;;
55190;SDS011;41070;50.360;18.742;2022-08-05T06:03:53;6.70;;;5.30;;
55190;SDS011;41070;50.360;18.742;2022-08-05T06:06:21;6.20;;;5.40;;
55190;SDS011;41070;50.360;18.742;2022-08-05T06:08:48;8.20;;;5.10;;
55190;SDS011;41070;50.360;18.742;2022-08-05T06:11:16;6.50;;;5.30;;
55190;SDS011;41070;50.360;18.742;2022-08-05T06:13:52;6.20;;;5.50;;
55190;SDS011;41070;50.360;18.742;2022-08-05T06:23:03;6.00;;;5.10;;
55190;SDS011;41070;50.360;18.742;2022-08-05T06:35:04;6.10;;;5.20;;
55190;SDS011;41070;50.360;18.742;2022-08-05T06:38:02;7.50;;;4.80;;
55190;SDS011;41070;50.360;18.742;2022-08-05T06:40:47;8.90;;;5.10;;
55190;SDS011;41070;50.360;18.742;2022-08-05T06:43:26;5.80;;;5.30;;
55190;SDS011;41070;50.360;18.742;2022-08-05T06:46:23;7.30;;;5.20;;
55190;SDS011;41070;50.360;18.742;2022-08-05T06:49:04;6.20;;;5.60;;
55190;SDS011;41070;50.360;18.742;2022-08-05T06:51:45;7.70;;;5.40;;
55190;SDS011;41070;50.360;18.742;2022-08-05T06:54:24;9.00;;;5.60;;
55190;SDS011;41070;50.360;18.742;2022-08-05T06:57:14;7.10;;;5.40;;
55190;SDS011;41070;50.360;18.742;2022-08-05T06:59:47;5.80;;;5.30;;
55190;SDS011;41070;50.360;18.742;2022-08-05T07:02:32;8.70;;;6.80;;
55190;SDS011;41070;50.360;18.742;2022-08-05T07:05:25;7.10;;;5.70;;
55190;SDS011;41070;50.360;18.742;2022-08-05T07:08:02;7.60;;;5.80;;
55190;SDS011;41070;50.360;18.742;2022-08-05T07:10:45;9.10;;;6.40;;
55190;SDS011;41070;50.360;18.742;2022-08-05T07:13:19;7.10;;;5.90;;
55190;SDS011;41070;50.360;18.742;2022-08-05T07:16:15;8.50;;;6.50;;
55190;SDS011;41070;50.360;18.742;2022-08-05T07:18:47;6.40;;;5.70;;
55190;SDS011;41070;50.360;18.742;2022-08-05T07:21:30;6.10;;;5.30;;
55190;SDS011;41070;50.360;18.742;2022-08-05T07:24:03;6.30;;;5.70;;
55190;SDS011;41070;50.360;18.742;2022-08-05T07:26:43;7.50;;;5.90;;
55190;SDS011;41070;50.360;18.742;2022-08-05T07:29:16;6.80;;;5.70;;
55190;SDS011;41070;50.360;18.742;2022-08-05T07:31:56;5.60;;;5.10;;
55190;SDS011;41070;50.360;18.742;2022-08-05T07:34:31;7.30;;;5.90;;
55190;SDS011;41070;50.360;18.742;2022-08-05T07:37:39;6.00;;;5.30;;
55190;SDS011;41070;50.360;18.742;2022-08-05T07:40:15;6.80;;;5.30;;
55190;SDS011;41070;50.360;18.742;2022-08-05T07:42:55;7.00;;;5.80;;
55190;SDS011;41070;50.360;18.742;2022-08-05T07:45:41;7.80;;;5.80;;
55190;SDS011;41070;50.360;18.742;2022-08-05T07:48:28;6.90;;;5.50;;
55190;SDS011;41070;50.360;18.742;2022-08-05T09:37:36;3.90;;;3.60;;
55190;SDS011;41070;50.360;18.742;2022-08-05T09:59:46;7.60;;;4.10;;
55190;SDS011;41070;50.360;18.742;2022-08-05T10:05:34;4.20;;;3.80;;
55190;SDS011;41070;50.360;18.742;2022-08-05T10:08:39;7.10;;;4.00;;
55190;SDS011;41070;50.360;18.742;2022-08-05T10:11:20;6.20;;;4.00;;
55190;SDS011;41070;50.360;18.742;2022-08-05T10:26:27;3.90;;;3.40;;
55190;SDS011;41070;50.360;18.742;2022-08-05T10:29:17;4.90;;;3.20;;
55190;SDS011;41070;50.360;18.742;2022-08-05T11:23:55;3.50;;;3.10;;
55190;SDS011;41070;50.360;18.742;2022-08-05T12:45:37;5.60;;;3.50;;
55190;SDS011;41070;50.360;18.742;2022-08-05T14:32:32;5.30;;;2.70;;
55190;SDS011;41070;50.360;18.742;2022-08-05T14:35:11;2.80;;;2.40;;
55190;SDS011;41070;50.360;18.742;2022-08-05T14:38:12;3.90;;;2.70;;
55190;SDS011;41070;50.360;18.742;2022-08-05T14:44:25;3.30;;;2.60;;
55190;SDS011;41070;50.360;18.742;2022-08-05T15:09:53;3.00;;;2.50;;
55190;SDS011;41070;50.360;18.742;2022-08-05T15:12:51;2.90;;;2.70;;
55190;SDS011;41070;50.360;18.742;2022-08-05T15:28:17;3.30;;;3.00;;
55190;SDS011;41070;50.360;18.742;2022-08-05T15:31:11;6.10;;;3.70;;
55190;SDS011;41070;50.360;18.742;2022-08-05T15:37:07;4.90;;;3.00;;
55190;SDS011;41070;50.360;18.742;2022-08-05T15:39:58;4.40;;;3.20;;
55190;SDS011;41070;50.360;18.742;2022-08-05T15:52:09;5.20;;;3.80;;
55190;SDS011;41070;50.360;18.742;2022-08-05T15:54:54;5.80;;;3.50;;
55190;SDS011;41070;50.360;18.742;2022-08-05T16:00:30;6.20;;;3.20;;
55190;SDS011;41070;50.360;18.742;2022-08-05T16:06:19;5.70;;;3.50;;
55190;SDS011;41070;50.360;18.742;2022-08-05T16:09:16;3.40;;;3.10;;
55190;SDS011;41070;50.360;18.742;2022-08-05T16:12:05;3.40;;;3.10;;
55190;SDS011;41070;50.360;18.742;2022-08-05T16:14:57;3.40;;;3.10;;
55190;SDS011;41070;50.360;18.742;2022-08-05T16:26:50;3.70;;;3.40;;
55190;SDS011;41070;50.360;18.742;2022-08-05T16:29:52;3.70;;;2.90;;
55190;SDS011;41070;50.360;18.742;2022-08-05T16:33:07;3.50;;;3.20;;
55190;SDS011;41070;50.360;18.742;2022-08-05T16:35:46;4.00;;;3.50;;
55190;SDS011;41070;50.360;18.742;2022-08-05T16:38:46;3.50;;;3.20;;
55190;SDS011;41070;50.360;18.742;2022-08-05T16:41:35;8.10;;;3.80;;
55190;SDS011;41070;50.360;18.742;2022-08-05T16:44:17;8.40;;;3.70;;
55190;SDS011;41070;50.360;18.742;2022-08-05T16:47:05;4.20;;;3.30;;
55190;SDS011;41070;50.360;18.742;2022-08-05T16:49:35;5.50;;;3.90;;
55190;SDS011;41070;50.360;18.742;2022-08-05T16:55:40;4.90;;;3.50;;
55190;SDS011;41070;50.360;18.742;2022-08-05T17:01:31;4.80;;;3.60;;
55190;SDS011;41070;50.360;18.742;2022-08-05T17:52:31;3.80;;;3.50;;
55190;SDS011;41070;50.360;18.742;2022-08-05T17:55:35;3.40;;;3.10;;
55190;SDS011;41070;50.360;18.742;2022-08-05T17:58:43;3.90;;;3.60;;
55190;SDS011;41070;50.360;18.742;2022-08-05T18:01:15;3.70;;;3.40;;
55190;SDS011;41070;50.360;18.742;2022-08-05T18:03:54;3.60;;;3.30;;
55190;SDS011;41070;50.360;18.742;2022-08-05T18:07:06;3.70;;;3.40;;
55190;SDS011;41070;50.360;18.742;2022-08-05T18:09:47;3.70;;;3.40;;
55190;SDS011;41070;50.360;18.742;2022-08-05T18:12:23;3.90;;;3.40;;
55190;SDS011;41070;50.360;18.742;2022-08-05T18:14:57;5.80;;;3.50;;
55190;SDS011;41070;50.360;18.742;2022-08-05T18:17:47;5.90;;;3.50;;
55190;SDS011;41070;50.360;18.742;2022-08-05T18:20:19;4.00;;;3.50;;
55190;SDS011;41070;50.360;18.742;2022-08-05T18:23:08;3.80;;;3.50;;
55190;SDS011;41070;50.360;18.742;2022-08-05T18:25:52;3.60;;;3.30;;
55190;SDS011;41070;50.360;18.742;2022-08-05T18:28:50;6.80;;;3.60;;
55190;SDS011;41070;50.360;18.742;2022-08-05T18:31:41;5.20;;;3.50;;
55190;SDS011;41070;50.360;18.742;2022-08-05T18:34:34;6.00;;;3.90;;
55190;SDS011;41070;50.360;18.742;2022-08-05T18:37:38;5.30;;;3.70;;
55190;SDS011;41070;50.360;18.742;2022-08-05T18:40:34;4.70;;;4.10;;
55190;SDS011;41070;50.360;18.742;2022-08-05T18:43:10;5.30;;;4.10;;
55190;SDS011;41070;50.360;18.742;2022-08-05T18:45:38;8.70;;;4.50;;
55190;SDS011;41070;50.360;18.742;2022-08-05T18:48:06;6.30;;;4.30;;
55190;SDS011;41070;50.360;18.742;2022-08-05T18:51:13;6.90;;;4.10;;
55190;SDS011;41070;50.360;18.742;2022-08-05T18:54:00;6.10;;;4.70;;
55190;SDS011;41070;50.360;18.742;2022-08-05T18:56:29;8.00;;;4.80;;
55190;SDS011;41070;50.360;18.742;2022-08-05T18:58:57;5.60;;;4.40;;
55190;SDS011;41070;50.360;18.742;2022-08-05T19:02:00;5.30;;;4.60;;
55190;SDS011;41070;50.360;18.742;2022-08-05T19:04:27;9.10;;;7.80;;
55190;SDS011;41070;50.360;18.742;2022-08-05T19:06:56;10.10;;;7.60;;
55190;SDS011;41070;50.360;18.742;2022-08-05T19:09:28;12.20;;;8.50;;
55190;SDS011;41070;50.360;18.742;2022-08-05T19:11:55;9.10;;;7.80;;
55190;SDS011;41070;50.360;18.742;2022-08-05T19:14:29;9.20;;;7.80;;
55190;SDS011;41070;50.360;18.742;2022-08-05T19:16:58;7.90;;;6.70;;
55190;SDS011;41070;50.360;18.742;2022-08-05T19:19:27;8.30;;;6.60;;
55190;SDS011;41070;50.360;18.742;2022-08-05T19:21:55;7.50;;;6.20;;
55190;SDS011;41070;50.360;18.742;2022-08-05T19:24:23;8.10;;;6.50;;
55190;SDS011;41070;50.360;18.742;2022-08-05T19:26:53;7.80;;;7.00;;
55190;SDS011;41070;50.360;18.742;2022-08-05T19:29:22;7.70;;;6.60;;
55190;SDS011;41070;50.360;18.742;2022-08-05T19:31:50;8.00;;;6.70;;
55190;SDS011;41070;50.360;18.742;2022-08-05T19:34:18;8.10;;;6.00;;
55190;SDS011;41070;50.360;18.742;2022-08-05T19:36:46;7.80;;;6.70;;
55190;SDS011;41070;50.360;18.742;2022-08-05T19:39:14;11.80;;;6.60;;
55190;SDS011;41070;50.360;18.742;2022-08-05T19:41:41;10.20;;;7.40;;
55190;SDS011;41070;50.360;18.742;2022-08-05T19:44:09;8.70;;;6.70;;
55190;SDS011;41070;50.360;18.742;2022-08-05T19:46:37;8.80;;;7.10;;
55190;SDS011;41070;50.360;18.742;2022-08-05T19:49:04;8.80;;;6.80;;
55190;SDS011;41070;50.360;18.742;2022-08-05T19:51:33;8.10;;;6.70;;
55190;SDS011;41070;50.360;18.742;2022-08-05T19:54:02;9.20;;;6.80;;
55190;SDS011;41070;50.360;18.742;2022-08-05T19:56:34;11.60;;;7.20;;
55190;SDS011;41070;50.360;18.742;2022-08-05T19:59:04;13.30;;;7.00;;
55190;SDS011;41070;50.360;18.742;2022-08-05T20:01:32;8.20;;;7.10;;
55190;SDS011;41070;50.360;18.742;2022-08-05T20:04:02;8.70;;;6.80;;
55190;SDS011;41070;50.360;18.742;2022-08-05T20:06:30;9.20;;;6.90;;
55190;SDS011;41070;50.360;18.742;2022-08-05T20:08:58;9.10;;;7.00;;
55190;SDS011;41070;50.360;18.742;2022-08-05T20:11:25;9.90;;;7.00;;
55190;SDS011;41070;50.360;18.742;2022-08-05T20:13:55;8.70;;;6.80;;
55190;SDS011;41070;50.360;18.742;2022-08-05T20:16:23;9.90;;;6.70;;
55190;SDS011;41070;50.360;18.742;2022-08-05T20:18:51;9.50;;;7.40;;
55190;SDS011;41070;50.360;18.742;2022-08-05T20:21:18;13.30;;;7.30;;
55190;SDS011;41070;50.360;18.742;2022-08-05T20:23:47;9.50;;;7.50;;
55190;SDS011;41070;50.360;18.742;2022-08-05T20:26:15;9.60;;;7.20;;
55190;SDS011;41070;50.360;18.742;2022-08-05T20:28:47;8.70;;;6.60;;
55190;SDS011;41070;50.360;18.742;2022-08-05T20:31:16;9.40;;;7.00;;
55190;SDS011;41070;50.360;18.742;2022-08-05T20:33:44;13.50;;;6.50;;
55190;SDS011;41070;50.360;18.742;2022-08-05T20:36:12;9.70;;;7.10;;
55190;SDS011;41070;50.360;18.742;2022-08-05T20:38:40;11.20;;;7.50;;
55190;SDS011;41070;50.360;18.742;2022-08-05T20:41:08;8.30;;;7.30;;
55190;SDS011;41070;50.360;18.742;2022-08-05T20:43:35;12.30;;;8.70;;
55190;SDS011;41070;50.360;18.742;2022-08-05T20:46:03;14.40;;;8.40;;
55190;SDS011;41070;50.360;18.742;2022-08-05T20:48:33;9.80;;;7.90;;
55190;SDS011;41070;50.360;18.742;2022-08-05T20:51:01;9.60;;;8.00;;
55190;SDS011;41070;50.360;18.742;2022-08-05T20:53:29;10.60;;;7.50;;
55190;SDS011;41070;50.360;18.742;2022-08-05T20:55:57;10.60;;;7.30;;
55190;SDS011;41070;50.360;18.742;2022-08-05T20:58:24;9.20;;;7.50;;
55190;SDS011;41070;50.360;18.742;2022-08-05T21:00:58;12.50;;;7.50;;
55190;SDS011;41070;50.360;18.742;2022-08-05T21:03:28;10.70;;;7.40;;
55190;SDS011;41070;50.360;18.742;2022-08-05T21:05:56;10.10;;;7.10;;
55190;SDS011;41070;50.360;18.742;2022-08-05T21:08:23;8.90;;;7.40;;
55190;SDS011;41070;50.360;18.742;2022-08-05T21:10:54;9.90;;;7.50;;
55190;SDS011;41070;50.360;18.742;2022-08-05T21:13:21;11.00;;;7.80;;
55190;SDS011;41070;50.360;18.742;2022-08-05T21:15:49;12.40;;;7.60;;
55190;SDS011;41070;50.360;18.742;2022-08-05T21:18:16;12.90;;;8.40;;
55190;SDS011;41070;50.360;18.742;2022-08-05T21:20:44;13.50;;;8.10;;
55190;SDS011;41070;50.360;18.742;2022-08-05T21:23:12;13.80;;;7.80;;
55190;SDS011;41070;50.360;18.742;2022-08-05T21:25:39;15.30;;;8.70;;
55190;SDS011;41070;50.360;18.742;2022-08-05T21:28:09;10.10;;;8.10;;
55190;SDS011;41070;50.360;18.742;2022-08-05T21:30:38;10.40;;;7.70;;
55190;SDS011;41070;50.360;18.742;2022-08-05T21:33:06;12.50;;;8.10;;
55190;SDS011;41070;50.360;18.742;2022-08-05T21:35:35;13.10;;;8.30;;
55190;SDS011;41070;50.360;18.742;2022-08-05T21:38:05;11.90;;;8.00;;
55190;SDS011;41070;50.360;18.742;2022-08-05T21:40:34;15.00;;;7.70;;
55190;SDS011;41070;50.360;18.742;2022-08-05T21:43:01;11.80;;;7.40;;
55190;SDS011;41070;50.360;18.742;2022-08-05T21:45:29;13.70;;;8.20;;
55190;SDS011;41070;50.360;18.742;2022-08-05T21:47:56;10.20;;;7.60;;
55190;SDS011;41070;50.360;18.742;2022-08-05T21:50:24;13.10;;;8.00;;
55190;SDS011;41070;50.360;18.742;2022-08-05T21:52:53;10.80;;;7.90;;
55190;SDS011;41070;50.360;18.742;2022-08-05T21:55:20;12.20;;;8.70;;
55190;SDS011;41070;50.360;18.742;2022-08-05T21:57:48;9.70;;;8.70;;
55190;SDS011;41070;50.360;18.742;2022-08-05T22:00:15;11.80;;;8.60;;
55190;SDS011;41070;50.360;18.742;2022-08-05T22:02:43;9.80;;;8.20;;
55190;SDS011;41070;50.360;18.742;2022-08-05T22:05:11;11.60;;;8.50;;
55190;SDS011;41070;50.360;18.742;2022-08-05T22:07:39;10.80;;;8.50;;
55190;SDS011;41070;50.360;18.742;2022-08-05T22:10:08;11.50;;;8.20;;
55190;SDS011;41070;50.360;18.742;2022-08-05T22:12:36;9.80;;;8.40;;
55190;SDS011;41070;50.360;18.742;2022-08-05T22:15:07;12.30;;;8.90;;
55190;SDS011;41070;50.360;18.742;2022-08-05T22:17:37;10.50;;;8.00;;
55190;SDS011;41070;50.360;18.742;2022-08-05T22:20:06;11.20;;;8.80;;
55190;SDS011;41070;50.360;18.742;2022-08-05T22:22:35;11.20;;;8.60;;
55190;SDS011;41070;50.360;18.742;2022-08-05T22:25:16;11.30;;;8.90;;
55190;SDS011;41070;50.360;18.742;2022-08-05T22:28:01;12.90;;;8.80;;
55190;SDS011;41070;50.360;18.742;2022-08-05T22:30:29;11.00;;;8.20;;
55190;SDS011;41070;50.360;18.742;2022-08-05T22:32:57;10.30;;;8.50;;
55190;SDS011;41070;50.360;18.742;2022-08-05T22:35:24;10.60;;;9.20;;
55190;SDS011;41070;50.360;18.742;2022-08-05T22:37:52;12.20;;;9.00;;
55190;SDS011;41070;50.360;18.742;2022-08-05T22:40:19;11.00;;;9.90;;
55190;SDS011;41070;50.360;18.742;2022-08-05T22:42:47;10.30;;;9.20;;
55190;SDS011;41070;50.360;18.742;2022-08-05T22:45:15;14.00;;;9.50;;
55190;SDS011;41070;50.360;18.742;2022-08-05T22:47:42;12.00;;;9.40;;
55190;SDS011;41070;50.360;18.742;2022-08-05T22:50:10;14.60;;;9.50;;
55190;SDS011;41070;50.360;18.742;2022-08-05T22:52:37;10.90;;;9.80;;
55190;SDS011;41070;50.360;18.742;2022-08-05T22:55:05;12.70;;;9.80;;
55190;SDS011;41070;50.360;18.742;2022-08-05T22:57:34;12.00;;;10.00;;
55190;SDS011;41070;50.360;18.742;2022-08-05T23:00:03;14.20;;;10.00;;
55190;SDS011;41070;50.360;18.742;2022-08-05T23:02:32;12.60;;;10.10;;
55190;SDS011;41070;50.360;18.742;2022-08-05T23:05:00;12.30;;;10.60;;
55190;SDS011;41070;50.360;18.742;2022-08-05T23:07:28;12.50;;;10.50;;
55190;SDS011;41070;50.360;18.742;2022-08-05T23:09:55;12.10;;;10.40;;
55190;SDS011;41070;50.360;18.742;2022-08-05T23:12:23;13.80;;;9.70;;
55190;SDS011;41070;50.360;18.742;2022-08-05T23:14:53;14.10;;;10.40;;
55190;SDS011;41070;50.360;18.742;2022-08-05T23:17:20;12.90;;;10.50;;
55190;SDS011;41070;50.360;18.742;2022-08-05T23:19:54;12.80;;;11.00;;
55190;SDS011;41070;50.360;18.742;2022-08-05T23:22:25;13.00;;;11.10;;
55190;SDS011;41070;50.360;18.742;2022-08-05T23:24:54;12.70;;;11.20;;
55190;SDS011;41070;50.360;18.742;2022-08-05T23:27:22;14.40;;;10.40;;
55190;SDS011;41070;50.360;18.742;2022-08-05T23:29:50;11.40;;;9.60;;
55190;SDS011;41070;50.360;18.742;2022-08-05T23:32:19;11.60;;;10.40;;
55190;SDS011;41070;50.360;18.742;2022-08-05T23:34:46;13.70;;;9.50;;
55190;SDS011;41070;50.360;18.742;2022-08-05T23:37:14;15.30;;;10.50;;
55190;SDS011;41070;50.360;18.742;2022-08-05T23:39:41;11.10;;;10.00;;
55190;SDS011;41070;50.360;18.742;2022-08-05T23:42:09;13.40;;;10.00;;
55190;SDS011;41070;50.360;18.742;2022-08-05T23:44:36;13.30;;;10.20;;
55190;SDS011;41070;50.360;18.742;2022-08-05T23:47:04;12.00;;;9.80;;